Time;durP1;ratioP1;P1;durP2;ratioP2;P2;SDS_P1;SDS_P2;PMS_P1;PMS_P2;Temp;Humidity;BMP_temperature;BMP_pressure;BME280_temperature;BME280_humidity;BME280_pressure;Samples;Min_cycle;Max_cycle;Signal;HPM_P1;HPM_P2
2023/04/26 00:00:47;;;;;;;3.17;1.13;;;4.20;99.90;;;;;;5073540;28;20045;-39
2023/04/26 00:03:13;;;;;;;3.73;0.70;;;4.20;99.90;;;;;;5074006;28;20475;-39
2023/04/26 00:05:39;;;;;;;3.40;0.97;;;4.20;99.90;;;;;;5073848;28;20192;-39
2023/04/26 00:08:05;;;;;;;2.33;0.93;;;4.20;99.90;;;;;;5073737;28;20197;-39
2023/04/26 00:10:31;;;;;;;2.63;0.70;;;4.20;99.90;;;;;;5074354;28;20365;-38
2023/04/26 00:12:56;;;;;;;2.70;0.90;;;4.20;99.90;;;;;;5073756;28;20091;-38
2023/04/26 00:15:22;;;;;;;2.87;0.80;;;4.20;99.90;;;;;;5073765;28;20052;-39
2023/04/26 00:17:48;;;;;;;2.13;0.60;;;4.20;99.90;;;;;;5072944;28;20084;-39
2023/04/26 00:20:14;;;;;;;2.97;1.27;;;4.20;99.90;;;;;;5073734;28;20482;-39
2023/04/26 00:22:40;;;;;;;1.95;0.40;;;4.20;99.90;;;;;;5072524;28;20040;-39
2023/04/26 00:25:06;;;;;;;4.23;0.77;;;4.20;99.90;;;;;;5073673;28;20140;-39
2023/04/26 00:27:31;;;;;;;2.13;0.80;;;4.20;99.90;;;;;;5074024;28;20082;-38
2023/04/26 00:29:57;;;;;;;1.83;0.70;;;4.20;99.90;;;;;;5073643;28;20123;-38
2023/04/26 00:32:23;;;;;;;4.67;0.90;;;4.20;99.90;;;;;;5073745;28;20051;-38
2023/04/26 00:34:48;;;;;;;3.07;0.70;;;4.20;99.90;;;;;;5073573;28;20127;-38
2023/04/26 00:37:14;;;;;;;4.57;1.00;;;4.20;99.90;;;;;;5073337;28;20094;-38
2023/04/26 00:39:40;;;;;;;3.90;0.80;;;4.20;99.90;;;;;;5073520;28;20045;-38
2023/04/26 00:42:05;;;;;;;2.90;0.80;;;4.20;99.90;;;;;;5073468;28;20391;-38
2023/04/26 00:44:31;;;;;;;4.38;1.08;;;4.20;99.90;;;;;;5073257;28;20052;-38
2023/04/26 00:46:57;;;;;;;2.27;0.57;;;4.30;99.90;;;;;;5073458;28;20123;-38
2023/04/26 00:49:25;;;;;;;4.73;0.87;;;4.30;99.90;;;;;;5073260;28;20116;-38
2023/04/26 00:51:54;;;;;;;2.90;0.55;;;4.30;99.90;;;;;;5073214;28;20059;-39
2023/04/26 00:54:20;;;;;;;2.17;0.70;;;4.30;99.90;;;;;;5073419;28;20131;-38
2023/04/26 00:56:46;;;;;;;4.20;0.90;;;4.30;99.90;;;;;;5073569;28;20084;-38
2023/04/26 00:59:12;;;;;;;3.78;0.75;;;4.20;99.90;;;;;;5073350;28;20052;-38
2023/04/26 01:01:41;;;;;;;3.50;0.90;;;4.30;99.90;;;;;;5073346;28;20053;-39
2023/04/26 01:04:07;;;;;;;1.95;0.90;;;4.20;99.90;;;;;;5072081;28;20408;-39
2023/04/26 01:06:34;;;;;;;1.93;0.83;;;4.10;99.90;;;;;;5073335;28;20041;-38
2023/04/26 01:09:07;;;;;;;5.32;1.10;;;4.10;99.90;;;;;;5073317;28;20045;-38
2023/04/26 01:11:34;;;;;;;3.83;1.27;;;4.00;99.90;;;;;;5073236;28;20059;-38
2023/04/26 01:14:01;;;;;;;1.60;0.77;;;4.00;99.90;;;;;;5075150;28;20503;-38
2023/04/26 01:16:27;;;;;;;;;;;3.90;99.90;;;;;;5076255;28;20507;-39
2023/04/26 01:18:53;;;;;;;2.30;0.70;;;3.80;99.90;;;;;;5076628;28;20028;-39
2023/04/26 01:21:21;;;;;;;3.13;0.80;;;3.80;99.90;;;;;;5075838;28;20124;-38
2023/04/26 01:23:50;;;;;;;3.72;0.80;;;3.70;99.90;;;;;;5076980;28;20278;-38
2023/04/26 01:26:17;;;;;;;2.20;0.75;;;3.70;99.90;;;;;;5076718;28;20544;-38
2023/04/26 01:28:42;;;;;;;2.42;0.70;;;3.70;99.90;;;;;;5075364;28;20407;-39
2023/04/26 01:31:08;;;;;;;5.30;0.90;;;3.70;99.90;;;;;;5076601;28;20051;-40
2023/04/26 01:33:34;;;;;;;4.47;1.10;;;3.70;99.90;;;;;;5076409;28;20403;-38
2023/04/26 01:35:59;;;;;;;2.27;0.67;;;3.70;99.90;;;;;;5076625;28;20041;-38
2023/04/26 01:38:25;;;;;;;4.03;1.00;;;3.70;99.90;;;;;;5076511;28;20476;-39
2023/04/26 01:40:51;;;;;;;3.67;0.70;;;3.80;99.90;;;;;;5076505;28;20051;-38
2023/04/26 01:43:19;;;;;;;6.30;1.07;;;3.90;99.90;;;;;;5075041;28;20048;-38
2023/04/26 01:45:48;;;;;;;2.90;0.70;;;3.90;99.90;;;;;;5076274;28;20484;-39
2023/04/26 01:48:14;;;;;;;2.45;0.80;;;4.00;99.90;;;;;;5075149;28;20041;-39
2023/04/26 01:50:39;;;;;;;2.38;0.70;;;4.10;99.90;;;;;;5076313;28;20051;-38
2023/04/26 01:53:05;;;;;;;5.87;0.83;;;4.10;99.90;;;;;;5076532;28;20044;-38
2023/04/26 01:55:32;;;;;;;2.80;0.90;;;4.10;99.90;;;;;;5075142;28;20402;-38
2023/04/26 01:57:58;;;;;;;;;;;4.10;99.90;;;;;;5076532;28;20380;-38
2023/04/26 02:00:23;;;;;;;2.28;0.80;;;4.10;99.90;;;;;;5076089;28;19928;-38
2023/04/26 02:02:49;;;;;;;6.30;1.02;;;4.10;99.90;;;;;;5075997;28;20060;-39
2023/04/26 02:05:15;;;;;;;5.93;2.90;;;4.00;99.90;;;;;;5075461;28;20047;-39
2023/04/26 02:07:40;;;;;;;3.83;0.80;;;4.10;99.90;;;;;;5076087;28;20052;-38
2023/04/26 02:10:07;;;;;;;3.63;1.20;;;4.00;99.90;;;;;;5076071;28;20132;-38
2023/04/26 02:12:32;;;;;;;2.35;0.70;;;4.10;99.90;;;;;;5075831;28;20502;-38
2023/04/26 02:14:58;;;;;;;3.37;0.87;;;4.10;99.90;;;;;;5075847;28;20049;-39
2023/04/26 02:17:26;;;;;;;4.80;1.00;;;4.10;99.90;;;;;;5075896;28;20055;-38
2023/04/26 02:19:52;;;;;;;5.32;1.17;;;4.10;99.90;;;;;;5075779;28;20086;-38
2023/04/26 02:22:18;;;;;;;2.72;0.85;;;4.10;99.90;;;;;;5075888;28;20044;-38
2023/04/26 02:24:43;;;;;;;2.65;0.90;;;4.10;99.90;;;;;;5075316;28;20395;-38
2023/04/26 02:27:09;;;;;;;3.13;1.00;;;4.10;99.90;;;;;;5075694;28;20080;-38
2023/04/26 02:29:38;;;;;;;3.57;0.90;;;4.10;99.90;;;;;;5075688;28;20045;-39
2023/04/26 02:32:04;;;;;;;2.55;0.95;;;4.10;99.90;;;;;;5075480;28;20449;-39
2023/04/26 02:34:29;;;;;;;2.17;0.70;;;4.10;99.90;;;;;;5075950;28;20052;-39
2023/04/26 02:36:55;;;;;;;2.87;0.80;;;4.20;99.90;;;;;;5075662;28;20399;-38
2023/04/26 02:39:21;;;;;;;1.90;0.80;;;4.10;99.90;;;;;;5074696;28;20048;-39
2023/04/26 02:41:46;;;;;;;6.60;0.90;;;4.20;99.90;;;;;;5075592;28;20079;-38
2023/04/26 02:44:12;;;;;;;4.00;0.97;;;4.20;99.90;;;;;;5075188;28;20141;-39
2023/04/26 02:46:38;;;;;;;4.30;1.00;;;4.20;99.90;;;;;;5075096;28;20057;-38
2023/04/26 02:49:03;;;;;;;3.23;1.03;;;4.20;99.90;;;;;;5075180;28;20053;-39
2023/04/26 02:51:29;;;;;;;4.03;1.10;;;4.20;99.90;;;;;;5075429;28;20052;-38
2023/04/26 02:53:55;;;;;;;2.97;1.00;;;4.10;99.90;;;;;;5075318;28;20072;-38
2023/04/26 02:56:20;;;;;;;2.13;0.70;;;4.10;99.90;;;;;;5074114;28;20040;-38
2023/04/26 02:58:46;;;;;;;2.57;0.87;;;4.10;99.90;;;;;;5074883;28;20087;-39
2023/04/26 03:01:13;;;;;;;2.95;1.00;;;4.10;99.90;;;;;;5074815;28;20087;-39
2023/04/26 03:03:39;;;;;;;3.95;0.90;;;4.00;99.90;;;;;;5075390;28;20056;-38
2023/04/26 03:06:05;;;;;;;2.20;0.60;;;4.10;99.90;;;;;;5074023;28;20044;-38
2023/04/26 03:08:31;;;;;;;2.30;0.90;;;4.10;99.90;;;;;;5074754;28;20399;-38
2023/04/26 03:10:56;;;;;;;2.10;0.80;;;4.10;99.90;;;;;;5074807;28;20041;-38
2023/04/26 03:13:23;;;;;;;2.42;0.85;;;4.10;99.90;;;;;;5074725;28;20510;-38
2023/04/26 03:15:51;;;;;;;11.85;1.30;;;4.00;99.90;;;;;;5074472;28;20494;-39
2023/04/26 03:18:17;;;;;;;3.60;0.88;;;4.00;99.90;;;;;;5074865;28;20404;-39
2023/04/26 03:20:42;;;;;;;5.85;1.05;;;4.00;99.90;;;;;;5074585;28;20044;-38
2023/04/26 03:23:08;;;;;;;2.07;0.70;;;4.00;99.90;;;;;;5074536;28;20128;-38
2023/04/26 03:25:34;;;;;;;1.73;0.50;;;4.00;99.90;;;;;;5074520;28;20052;-39
2023/04/26 03:27:59;;;;;;;3.60;0.77;;;4.00;99.90;;;;;;5074483;28;20135;-39
2023/04/26 03:30:25;;;;;;;1.60;0.80;;;4.00;99.90;;;;;;5074170;28;20044;-38
2023/04/26 03:32:51;;;;;;;4.55;0.80;;;4.00;99.90;;;;;;5074812;28;20089;-38
2023/04/26 03:35:17;;;;;;;4.87;0.60;;;4.00;99.90;;;;;;5074070;28;20048;-38
2023/04/26 03:37:43;;;;;;;3.25;1.20;;;4.00;99.90;;;;;;5073235;28;20287;-38
2023/04/26 03:40:09;;;;;;;2.42;0.85;;;4.00;99.90;;;;;;5072921;28;20055;-38
2023/04/26 03:42:36;;;;;;;1.98;0.90;;;4.00;99.90;;;;;;5073946;28;20483;-39
2023/04/26 03:45:02;;;;;;;2.15;0.70;;;4.00;99.90;;;;;;5074522;28;20409;-38
2023/04/26 03:47:29;;;;;;;2.47;0.80;;;4.00;99.90;;;;;;5073019;28;20045;-39
2023/04/26 03:49:55;;;;;;;;;;;3.90;99.90;;;;;;5074578;28;20051;-38
2023/04/26 03:52:21;;;;;;;3.72;0.70;;;4.00;99.90;;;;;;5074080;28;20015;-38
2023/04/26 03:54:46;;;;;;;3.00;0.70;;;4.00;99.90;;;;;;5074018;28;20365;-39
2023/04/26 03:57:12;;;;;;;1.63;0.50;;;3.90;99.90;;;;;;5073801;28;20052;-39
2023/04/26 03:59:38;;;;;;;1.83;0.77;;;3.90;99.90;;;;;;5073935;28;20045;-38
2023/04/26 04:02:03;;;;;;;2.80;0.70;;;3.90;99.90;;;;;;5074162;28;20044;-39
2023/04/26 04:04:29;;;;;;;4.53;1.23;;;3.80;99.90;;;;;;5073898;28;20044;-38
2023/04/26 04:06:55;;;;;;;2.78;0.82;;;3.80;99.90;;;;;;5073802;28;20048;-38
2023/04/26 04:09:21;;;;;;;4.33;1.00;;;3.80;99.90;;;;;;5073771;28;20048;-39
2023/04/26 04:11:46;;;;;;;1.77;0.70;;;3.80;99.90;;;;;;5073671;28;20125;-38
2023/04/26 04:14:12;;;;;;;3.67;1.02;;;3.70;99.90;;;;;;5073668;28;20122;-39
2023/04/26 04:16:38;;;;;;;2.50;0.80;;;3.80;99.90;;;;;;5073837;28;20044;-39
2023/04/26 04:19:04;;;;;;;1.90;0.93;;;3.80;99.90;;;;;;5073606;28;20033;-38
2023/04/26 04:21:30;;;;;;;3.38;0.75;;;3.80;99.90;;;;;;5073769;28;20093;-39
2023/04/26 04:23:56;;;;;;;3.17;0.82;;;3.80;99.90;;;;;;5072653;28;20091;-38
2023/04/26 04:26:22;;;;;;;2.60;0.93;;;3.80;99.90;;;;;;5073546;28;20052;-39
2023/04/26 04:28:48;;;;;;;2.78;0.90;;;3.90;99.90;;;;;;5072214;28;20106;-39
2023/04/26 04:31:14;;;;;;;1.10;0.50;;;3.90;99.90;;;;;;5073680;28;20084;-39
2023/04/26 04:33:39;;;;;;;2.47;0.70;;;3.90;99.90;;;;;;5072525;28;20044;-39
2023/04/26 04:36:05;;;;;;;2.93;0.83;;;4.00;99.90;;;;;;5072316;28;20056;-38
2023/04/26 04:38:31;;;;;;;2.03;0.80;;;4.00;99.90;;;;;;5073400;28;20467;-38
2023/04/26 04:40:57;;;;;;;2.10;0.77;;;4.10;99.90;;;;;;5073528;28;20091;-39
2023/04/26 04:43:23;;;;;;;4.10;0.77;;;4.10;99.90;;;;;;5073015;28;20442;-39
2023/04/26 04:45:49;;;;;;;0.93;0.50;;;4.10;99.90;;;;;;5072401;28;20045;-39
2023/04/26 04:48:15;;;;;;;2.67;0.80;;;4.20;99.90;;;;;;5075017;28;20059;-38
2023/04/26 04:50:41;;;;;;;2.35;0.73;;;4.20;99.90;;;;;;5077558;28;20131;-38
2023/04/26 04:53:11;;;;;;;1.70;0.75;;;4.20;99.90;;;;;;5076455;28;20059;-39
2023/04/26 04:55:37;;;;;;;1.77;0.70;;;4.30;99.90;;;;;;5077353;28;20048;-39
2023/04/26 04:58:03;;;;;;;2.38;0.90;;;4.30;99.90;;;;;;5059566;28;20052;-39
2023/04/26 05:00:29;;;;;;;3.63;0.95;;;4.30;99.90;;;;;;5077413;28;20044;-39
2023/04/26 05:02:55;;;;;;;4.00;0.93;;;4.40;99.90;;;;;;5077320;28;20051;-39
2023/04/26 05:05:21;;;;;;;2.35;0.93;;;4.40;99.90;;;;;;5077388;28;20040;-38
2023/04/26 05:07:47;;;;;;;2.90;0.82;;;4.40;99.90;;;;;;5077278;28;20491;-39
2023/04/26 05:10:13;;;;;;;2.37;1.27;;;4.50;99.90;;;;;;5076200;28;20048;-39
2023/04/26 05:12:39;;;;;;;3.90;0.95;;;4.50;99.90;;;;;;5077288;28;20399;-38
2023/04/26 05:15:05;;;;;;;2.50;0.90;;;4.50;99.90;;;;;;5077185;28;20123;-38
2023/04/26 05:17:32;;;;;;;4.03;1.00;;;4.60;99.90;;;;;;5077091;28;20079;-38
2023/04/26 05:19:58;;;;;;;;;;;4.60;99.90;;;;;;5077473;28;20467;-39
2023/04/26 05:22:25;;;;;;;3.05;0.88;;;4.70;99.90;;;;;;5076740;28;19962;-39
2023/04/26 05:24:51;;;;;;;2.47;0.80;;;4.70;99.90;;;;;;5076778;28;20399;-39
2023/04/26 05:27:17;;;;;;;3.00;0.93;;;4.70;99.90;;;;;;5076899;28;20049;-38
2023/04/26 05:29:42;;;;;;;3.37;0.70;;;4.80;99.90;;;;;;5075991;28;20090;-39
2023/04/26 05:32:08;;;;;;;4.90;1.13;;;4.80;99.90;;;;;;5076117;28;20036;-39
2023/04/26 05:34:34;;;;;;;4.80;1.13;;;4.80;99.90;;;;;;5076598;28;20045;-39
2023/04/26 05:37:00;;;;;;;2.00;0.77;;;4.80;99.90;;;;;;5075695;28;20267;-39
2023/04/26 05:39:25;;;;;;;5.03;1.13;;;4.80;99.90;;;;;;5075106;28;20098;-39
2023/04/26 05:41:51;;;;;;;5.03;0.93;;;4.80;99.90;;;;;;5076645;28;20060;-38
2023/04/26 05:44:17;;;;;;;2.57;0.60;;;4.80;99.90;;;;;;5075521;28;20059;-39
2023/04/26 05:46:44;;;;;;;3.70;0.80;;;4.80;99.90;;;;;;5076512;28;20053;-39
2023/04/26 05:49:09;;;;;;;;;;;4.80;99.90;;;;;;5076736;28;20482;-39
2023/04/26 05:51:35;;;;;;;2.25;0.68;;;5.00;99.90;;;;;;5076241;28;19928;-38
2023/04/26 05:54:00;;;;;;;2.00;0.67;;;5.20;99.90;;;;;;5076193;28;20048;-39
2023/04/26 05:56:26;;;;;;;2.20;0.80;;;5.50;99.90;;;;;;5076090;28;20119;-39
2023/04/26 05:58:52;;;;;;;3.33;1.03;;;5.90;99.90;;;;;;5075921;28;20533;-39
2023/04/26 06:01:18;;;;;;;2.97;0.80;;;6.10;99.90;;;;;;5076245;28;20044;-38
2023/04/26 06:03:45;;;;;;;2.30;0.83;;;6.20;99.90;;;;;;5076071;28;20132;-38
2023/04/26 06:06:11;;;;;;;2.17;0.80;;;6.20;99.90;;;;;;5075998;28;20044;-39
2023/04/26 06:08:37;;;;;;;2.35;0.88;;;6.00;99.90;;;;;;5075767;28;20048;-39
2023/04/26 06:11:03;;;;;;;2.42;0.82;;;5.90;99.90;;;;;;5076132;28;20044;-39
2023/04/26 06:13:28;;;;;;;6.90;1.07;;;5.80;99.90;;;;;;5075112;28;20090;-39
2023/04/26 06:15:54;;;;;;;3.43;1.00;;;5.70;99.90;;;;;;5074850;28;20051;-39
2023/04/26 06:18:19;;;;;;;2.50;1.10;;;5.70;99.90;;;;;;5075887;28;20490;-39
2023/04/26 06:20:46;;;;;;;4.57;1.10;;;5.60;99.90;;;;;;5075810;28;20049;-39
2023/04/26 06:23:11;;;;;;;2.70;0.93;;;5.60;99.90;;;;;;5074664;28;20083;-39
2023/04/26 06:25:42;;;;;;;2.93;1.00;;;5.50;99.90;;;;;;5075564;28;20455;-39
2023/04/26 06:28:08;;;;;;;4.22;1.10;;;5.60;99.90;;;;;;5075768;28;20449;-39
2023/04/26 06:30:34;;;;;;;3.47;1.20;;;5.70;99.90;;;;;;5075779;28;20045;-39
2023/04/26 06:33:00;;;;;;;3.23;1.20;;;6.20;99.90;;;;;;5075817;28;20048;-40
2023/04/26 06:35:26;;;;;;;4.80;1.88;;;7.30;99.90;;;;;;5074415;28;20087;-40
2023/04/26 06:37:52;;;;;;;6.27;1.57;;;8.60;99.90;;;;;;5075419;28;20084;-40
2023/04/26 06:40:17;;;;;;;9.00;1.97;;;9.70;99.90;;;;;;5075660;28;20042;-40
2023/04/26 06:42:43;;;;;;;7.20;1.40;;;10.70;99.90;;;;;;5074480;28;20476;-40
2023/04/26 06:45:10;;;;;;;3.37;1.00;;;11.60;99.90;;;;;;5075268;28;20105;-40
2023/04/26 06:47:36;;;;;;;1.73;0.50;;;12.10;99.90;;;;;;5074106;28;20067;-40
2023/04/26 06:50:03;;;;;;;1.95;0.55;;;12.30;99.90;;;;;;5074557;28;20080;-40
2023/04/26 06:52:30;;;;;;;1.90;0.57;;;12.20;99.90;;;;;;5075237;28;20071;-40
2023/04/26 06:54:55;;;;;;;1.85;0.70;;;12.00;99.90;;;;;;5074358;28;20490;-40
2023/04/26 06:57:21;;;;;;;2.03;0.80;;;11.60;99.90;;;;;;5075134;28;20044;-40
2023/04/26 06:59:47;;;;;;;3.78;0.60;;;11.20;99.90;;;;;;5073980;28;20483;-40
2023/04/26 07:02:12;;;;;;;3.70;0.60;;;11.00;99.90;;;;;;5075031;28;20098;-39
2023/04/26 07:04:38;;;;;;;3.13;1.07;;;10.60;99.90;;;;;;5074930;28;20496;-40
2023/04/26 07:07:04;;;;;;;2.37;0.83;;;10.20;99.90;;;;;;5074705;28;20041;-40
2023/04/26 07:09:30;;;;;;;1.93;0.73;;;10.10;99.90;;;;;;5074894;28;20047;-39
2023/04/26 07:11:56;;;;;;;3.33;0.80;;;10.40;99.90;;;;;;5072858;28;20545;-39
2023/04/26 07:14:22;;;;;;;4.60;0.63;;;10.50;99.90;;;;;;5073765;28;20052;-39
2023/04/26 07:16:48;;;;;;;2.67;0.63;;;10.40;99.90;;;;;;5074718;28;20087;-39
2023/04/26 07:19:14;;;;;;;3.17;0.63;;;10.20;99.90;;;;;;5074755;28;20080;-40
2023/04/26 07:21:39;;;;;;;0.80;0.40;;;10.00;99.90;;;;;;5074452;28;20052;-40
2023/04/26 07:24:05;;;;;;;2.33;0.63;;;9.90;99.90;;;;;;5074671;28;20522;-39
2023/04/26 07:26:31;;;;;;;1.20;0.60;;;10.00;99.90;;;;;;5074559;28;20537;-40
2023/04/26 07:28:58;;;;;;;3.77;0.70;;;10.20;99.90;;;;;;5073553;28;20060;-39
2023/04/26 07:31:24;;;;;;;4.07;1.15;;;10.40;99.90;;;;;;5073267;28;20517;-39
2023/04/26 07:33:50;;;;;;;4.30;1.30;;;10.60;99.90;;;;;;5074377;28;20088;-39
2023/04/26 07:36:15;;;;;;;3.43;0.70;;;10.70;99.90;;;;;;5074313;28;20048;-40
2023/04/26 07:38:41;;;;;;;3.20;0.73;;;10.50;99.90;;;;;;5074322;28;20675;-40
2023/04/26 07:41:07;;;;;;;1.70;0.67;;;10.20;99.90;;;;;;5074491;28;20436;-40
2023/04/26 07:43:33;;;;;;;4.60;0.70;;;9.90;99.90;;;;;;5074084;28;20396;-40
2023/04/26 07:46:01;;;;;;;4.27;1.10;;;9.60;99.90;;;;;;5074033;28;20412;-39
2023/04/26 07:48:27;;;;;;;2.83;0.70;;;9.30;99.90;;;;;;5074064;28;20411;-39
2023/04/26 07:50:54;;;;;;;2.35;0.85;;;9.10;99.90;;;;;;5073920;28;20398;-39
2023/04/26 07:53:20;;;;;;;4.20;0.98;;;8.80;99.90;;;;;;5056539;28;20490;-39
2023/04/26 07:55:46;;;;;;;5.95;0.85;;;8.50;99.90;;;;;;5073698;28;20131;-39
2023/04/26 07:58:13;;;;;;;1.13;0.53;;;8.40;99.90;;;;;;5074112;28;20139;-39
2023/04/26 08:00:40;;;;;;;2.22;0.88;;;8.30;99.90;;;;;;5074023;28;20067;-39
2023/04/26 08:03:06;;;;;;;3.47;1.15;;;8.20;99.90;;;;;;5073955;28;20118;-40
2023/04/26 08:05:32;;;;;;;5.63;0.90;;;8.30;99.90;;;;;;5073680;28;20554;-40
2023/04/26 08:08:00;;;;;;;2.83;0.80;;;8.40;99.90;;;;;;5074156;28;20123;-39
2023/04/26 08:10:25;;;;;;;2.28;0.80;;;8.40;99.90;;;;;;5072880;28;20044;-39
2023/04/26 08:12:52;;;;;;;1.93;0.70;;;8.50;99.90;;;;;;5073903;28;20051;-39
2023/04/26 08:15:18;;;;;;;3.95;1.15;;;8.50;99.90;;;;;;5072822;28;20049;-39
2023/04/26 08:17:43;;;;;;;3.93;1.10;;;8.50;99.90;;;;;;5073812;28;20056;-40
2023/04/26 08:20:09;;;;;;;4.97;0.87;;;8.40;99.90;;;;;;5073557;28;20484;-39
2023/04/26 08:22:35;;;;;;;5.35;1.20;;;8.30;99.90;;;;;;5073435;28;20051;-39
2023/04/26 08:25:01;;;;;;;3.60;0.93;;;8.30;99.90;;;;;;5073929;28;20041;-39
2023/04/26 08:27:27;;;;;;;3.03;0.83;;;8.20;99.90;;;;;;5073487;28;20391;-39
2023/04/26 08:29:52;;;;;;;3.67;0.60;;;8.20;99.90;;;;;;5072807;28;20048;-39
2023/04/26 08:32:18;;;;;;;2.67;0.63;;;8.10;99.90;;;;;;5073552;28;20052;-39
2023/04/26 08:34:44;;;;;;;1.47;0.50;;;8.10;99.90;;;;;;5073497;28;20553;-39
2023/04/26 08:37:10;;;;;;;3.70;0.63;;;7.90;99.90;;;;;;5073682;28;20051;-39
2023/04/26 08:39:36;;;;;;;5.35;0.60;;;7.80;99.90;;;;;;5072406;28;20102;-39
2023/04/26 08:42:13;;;;;;;1.43;0.50;;;7.70;99.90;;;;;;5073562;28;20052;-39
2023/04/26 08:44:41;;;;;;;1.38;0.50;;;7.50;99.90;;;;;;5073349;28;20067;-39
2023/04/26 08:47:45;;;;;;;2.88;0.60;;;7.50;99.90;;;;;;5073427;28;20053;-40
2023/04/26 08:50:14;;;;;;;2.50;0.75;;;7.40;99.90;;;;;;5072735;28;20048;-39
2023/04/26 08:52:41;;;;;;;1.83;0.60;;;7.40;99.90;;;;;;5073450;28;20048;-39
2023/04/26 08:55:15;;;;;;;1.63;0.50;;;7.30;99.90;;;;;;5073399;28;20052;-39
2023/04/26 08:57:42;;;;;;;2.95;0.65;;;7.40;99.90;;;;;;5072192;28;20057;-39
2023/04/26 09:00:12;;;;;;;4.60;0.68;;;7.40;99.90;;;;;;5073321;28;20047;-39
2023/04/26 09:02:44;;;;;;;2.85;0.50;;;7.40;99.90;;;;;;5073467;28;20071;-39
2023/04/26 09:05:11;;;;;;;3.03;0.65;;;7.40;99.90;;;;;;5072470;28;20060;-39
2023/04/26 09:07:42;;;;;;;1.10;0.30;;;7.30;99.90;;;;;;5073500;28;20048;-39
2023/04/26 09:10:09;;;;;;;1.90;0.55;;;7.40;99.90;;;;;;5073088;28;20433;-40
2023/04/26 09:12:35;;;;;;;1.55;0.60;;;7.40;99.90;;;;;;5073349;28;20391;-40
2023/04/26 09:15:01;;;;;;;2.77;0.67;;;7.40;99.90;;;;;;5072280;28;20052;-40
2023/04/26 09:17:28;;;;;;;2.08;0.60;;;7.50;99.90;;;;;;5072949;28;20078;-39
2023/04/26 09:19:54;;;;;;;2.28;0.50;;;7.50;99.90;;;;;;5071767;28;20127;-40
2023/04/26 09:22:33;;;;;;;4.68;1.00;;;7.60;99.90;;;;;;5073201;28;20115;-40
2023/04/26 09:25:00;;;;;;;2.20;0.40;;;7.60;99.90;;;;;;5071954;28;20086;-40
2023/04/26 09:27:42;;;;;;;2.55;0.77;;;7.70;99.90;;;;;;5072763;28;20377;-40
2023/04/26 09:30:10;;;;;;;2.28;0.40;;;7.80;99.90;;;;;;5072801;28;20040;-40
2023/04/26 09:33:02;;;;;;;4.05;0.50;;;7.80;99.90;;;;;;5071847;28;20084;-40
2023/04/26 09:35:35;;;;;;;1.58;0.32;;;7.90;99.90;;;;;;5074669;28;20082;-40
2023/04/26 09:38:02;;;;;;;1.73;0.30;;;7.90;99.90;;;;;;5076525;28;20587;-40
2023/04/26 09:40:30;;;;;;;1.67;0.35;;;8.00;99.90;;;;;;5076675;28;20048;-40
2023/04/26 09:43:05;;;;;;;2.13;0.40;;;8.10;99.90;;;;;;5058705;28;20064;-40
2023/04/26 09:45:32;;;;;;;1.45;0.35;;;8.30;99.90;;;;;;5076390;28;20060;-40
2023/04/26 09:48:24;;;;;;;1.48;0.43;;;8.30;99.90;;;;;;5075128;28;20080;-40
2023/04/26 09:50:54;;;;;;;1.52;0.50;;;8.60;99.90;;;;;;5075616;28;20100;-40
2023/04/26 09:53:38;;;;;;;1.20;0.30;;;8.70;99.90;;;;;;5075464;28;20055;-40
2023/04/26 09:56:17;;;;;;;2.67;0.40;;;8.90;99.90;;;;;;5075068;28;20530;-40
2023/04/26 09:58:46;;;;;;;1.77;0.57;;;8.90;99.90;;;;;;5076256;28;20475;-39
2023/04/26 10:01:13;;;;;;;0.93;0.30;;;8.90;99.90;;;;;;5076249;28;20131;-39
2023/04/26 10:03:41;;;;;;;1.52;0.22;;;8.90;99.90;;;;;;5076400;28;20079;-40
2023/04/26 10:06:07;;;;;;;0.98;0.25;;;8.90;99.90;;;;;;5075088;28;20123;-40
2023/04/26 10:08:33;;;;;;;4.40;1.20;;;8.80;99.90;;;;;;5075960;28;20136;-39
2023/04/26 10:11:12;;;;;;;1.60;0.25;;;8.70;99.90;;;;;;5075161;28;20475;-40
2023/04/26 10:13:41;;;;;;;0.52;0.20;;;8.70;99.90;;;;;;5075495;28;20079;-39
2023/04/26 10:16:08;;;;;;;1.02;0.30;;;8.60;99.90;;;;;;5075804;28;20502;-40
2023/04/26 10:18:34;;;;;;;;;;;8.60;99.90;;;;;;5076215;28;20059;-40
2023/04/26 10:21:06;;;;;;;1.77;0.30;;;8.60;99.90;;;;;;5074774;28;19920;-40
2023/04/26 10:23:32;;;;;;;2.22;0.40;;;8.50;99.90;;;;;;5075058;28;20044;-40
2023/04/26 10:25:58;;;;;;;3.20;0.50;;;8.60;99.90;;;;;;5074853;28;20097;-40
2023/04/26 10:28:39;;;;;;;2.40;0.70;;;8.80;99.90;;;;;;5074662;28;20041;-40
2023/04/26 10:31:06;;;;;;;0.38;0.20;;;8.90;99.90;;;;;;5074768;28;20131;-40
2023/04/26 10:33:32;;;;;;;1.75;0.40;;;8.90;99.90;;;;;;5074593;28;20131;-40
2023/04/26 10:36:12;;;;;;;1.75;0.52;;;8.80;99.90;;;;;;5075613;28;20493;-40
2023/04/26 10:39:00;;;;;;;0.30;0.15;;;8.80;99.90;;;;;;5074964;28;20048;-39
2023/04/26 10:41:32;;;;;;;2.38;0.40;;;8.70;99.90;;;;;;5074606;28;20442;-40
2023/04/26 10:44:00;;;;;;;1.00;0.30;;;8.60;99.90;;;;;;5074244;28;20097;-39
2023/04/26 10:46:36;;;;;;;1.65;0.30;;;8.50;99.90;;;;;;5075358;28;20106;-40
2023/04/26 10:49:21;;;;;;;2.53;0.60;;;8.40;99.90;;;;;;5074784;28;20064;-40
2023/04/26 10:52:13;;;;;;;2.05;0.50;;;8.40;99.90;;;;;;5074497;28;20044;-40
2023/04/26 10:54:48;;;;;;;2.35;0.50;;;8.30;99.90;;;;;;5074295;28;20054;-40
2023/04/26 10:57:13;;;;;;;3.05;0.40;;;8.10;99.90;;;;;;5074140;28;20051;-39
2023/04/26 10:59:39;;;;;;;1.67;0.50;;;7.90;99.90;;;;;;5075065;28;20375;-40
2023/04/26 11:02:12;;;;;;;1.30;0.30;;;7.70;99.90;;;;;;5074408;28;20452;-40
2023/04/26 11:04:51;;;;;;;2.38;0.77;;;7.50;99.90;;;;;;5074846;28;20045;-39
2023/04/26 11:07:36;;;;;;;1.92;0.40;;;7.40;99.90;;;;;;5074971;28;20040;-40
2023/04/26 11:10:02;;;;;;;3.35;0.55;;;7.50;99.90;;;;;;5073706;28;20061;-39
2023/04/26 11:12:28;;;;;;;3.75;0.88;;;7.60;99.90;;;;;;5074769;28;20041;-39
2023/04/26 11:14:55;;;;;;;1.67;0.80;;;7.70;99.90;;;;;;5074656;28;20051;-40
2023/04/26 11:17:21;;;;;;;;;;;7.90;99.90;;;;;;5074075;28;20102;-40
2023/04/26 11:19:46;;;;;;;1.52;0.57;;;8.00;99.90;;;;;;5074644;28;19924;-39
2023/04/26 11:22:12;;;;;;;1.63;0.40;;;8.10;99.90;;;;;;5074581;28;20495;-39
2023/04/26 11:24:38;;;;;;;1.03;0.33;;;8.20;99.90;;;;;;5074667;28;20087;-40
2023/04/26 11:27:12;;;;;;;1.60;0.50;;;8.30;99.90;;;;;;5074746;28;20123;-40
2023/04/26 11:29:38;;;;;;;2.30;0.50;;;8.40;99.90;;;;;;5074426;28;20044;-40
2023/04/26 11:32:04;;;;;;;0.70;0.30;;;8.40;99.90;;;;;;5074474;28;20049;-40
2023/04/26 11:34:34;;;;;;;1.80;0.40;;;8.50;99.90;;;;;;5074573;28;20090;-39
2023/04/26 11:37:04;;;;;;;3.38;0.55;;;8.60;99.90;;;;;;5074421;28;20047;-40
2023/04/26 11:39:33;;;;;;;0.98;0.40;;;8.60;99.90;;;;;;5074133;28;20032;-40
2023/04/26 11:42:06;;;;;;;2.25;0.70;;;8.70;99.90;;;;;;5074140;28;20040;-40
2023/04/26 11:44:32;;;;;;;2.67;0.55;;;8.70;99.90;;;;;;5072792;28;20044;-40
2023/04/26 11:47:00;;;;;;;0.95;0.30;;;8.80;99.90;;;;;;5073966;28;20051;-40
2023/04/26 11:49:26;;;;;;;2.05;0.52;;;8.80;99.90;;;;;;5074214;28;20040;-40
2023/04/26 11:51:53;;;;;;;1.77;0.40;;;8.80;99.90;;;;;;5073990;28;20063;-39
2023/04/26 11:54:31;;;;;;;3.25;0.60;;;8.80;99.90;;;;;;5074008;28;20055;-40
2023/04/26 11:57:11;;;;;;;3.53;0.57;;;8.80;99.90;;;;;;5072230;28;20052;-40
2023/04/26 11:59:37;;;;;;;3.75;0.68;;;8.80;99.90;;;;;;5057784;28;20507;-39
2023/04/26 12:02:06;;;;;;;2.40;0.50;;;8.70;99.90;;;;;;5073985;28;20047;-39
2023/04/26 12:04:32;;;;;;;3.42;0.75;;;8.70;99.90;;;;;;5072948;28;20040;-39
2023/04/26 12:06:58;;;;;;;2.72;0.95;;;8.70;99.90;;;;;;5073961;28;20403;-40
2023/04/26 12:09:27;;;;;;;1.43;0.50;;;8.60;99.90;;;;;;5073924;28;20127;-40
2023/04/26 12:11:59;;;;;;;1.15;0.50;;;8.50;99.90;;;;;;5073877;28;20102;-40
2023/04/26 12:14:46;;;;;;;1.52;0.43;;;8.50;99.90;;;;;;5072982;28;20052;-40
2023/04/26 12:17:14;;;;;;;1.38;0.60;;;8.50;99.90;;;;;;5073810;28;20059;-39
2023/04/26 12:19:40;;;;;;;1.00;0.40;;;8.50;99.90;;;;;;5072410;28;20124;-40
2023/04/26 12:22:07;;;;;;;1.70;0.50;;;8.80;99.90;;;;;;5056117;28;20080;-39
2023/04/26 12:24:35;;;;;;;1.75;0.40;;;9.00;99.90;;;;;;5072785;28;20045;-40
2023/04/26 12:27:05;;;;;;;2.15;0.50;;;9.30;99.90;;;;;;5073664;28;20127;-39
2023/04/26 12:29:32;;;;;;;1.92;0.52;;;9.40;99.90;;;;;;5073867;28;20079;-40
2023/04/26 12:32:01;;;;;;;2.58;0.55;;;9.50;99.90;;;;;;5073693;28;20128;-40
2023/04/26 12:34:27;;;;;;;2.35;0.40;;;9.70;99.90;;;;;;5055774;28;20086;-40
2023/04/26 12:36:52;;;;;;;2.37;0.50;;;9.80;99.90;;;;;;5073732;28;20079;-40
2023/04/26 12:39:18;;;;;;;1.37;0.50;;;9.90;99.90;;;;;;5072663;28;20056;-39
2023/04/26 12:41:45;;;;;;;1.93;0.60;;;10.00;99.90;;;;;;5072672;28;20498;-40
2023/04/26 12:44:11;;;;;;;;;;;10.00;99.90;;;;;;5072843;28;20063;-40
2023/04/26 12:46:37;;;;;;;2.63;0.68;;;10.00;99.90;;;;;;5073527;28;19920;-40
2023/04/26 12:49:03;;;;;;;4.63;0.57;;;10.20;99.90;;;;;;5089171;28;20071;-40
2023/04/26 12:51:28;;;;;;;2.10;0.50;;;10.30;99.90;;;;;;5072484;28;20045;-40
2023/04/26 12:53:54;;;;;;;1.57;0.63;;;10.40;99.90;;;;;;5072339;28;20774;-40
2023/04/26 12:56:21;;;;;;;2.03;0.55;;;10.30;99.90;;;;;;5073436;28;20040;-40
2023/04/26 12:58:47;;;;;;;1.65;0.50;;;10.10;99.90;;;;;;5055587;28;20041;-40